Raymond, Canada
Current Conditions -  °F | °C
As of 5:00 PM on Friday 28 Nov 2014 (Local Time) from CYQL Reporting Station
Light Snow Light Snow  
Wind Chill: -21°   Ceiling: 2000
Heat Index: -2°   Visibility: 1.5mi
Dew Point: -8°   Wind: 13mph
Humidity: 78%   Direction: 330°NNW
Pressure: 29.7"   Gusts: NA
Location:  49.47°N, 112.66°W
Report Text: CYQL 290000Z 33011KT 1 1/2SM -SN DRSN OVC020 M19/M22 A2970 RMK SN6SC2 VIS VRB 1-2 /S02/ SLP130
Loading
Personal Weather Stations






























Interactive Weather Map New forecast layout! Learn more

10-Day Weather Forecast

Advertisements
Track Severe Weather on mobile